Terminal Aerodrome Forecast
Issued by NWS Dallas/Fort Worth, TX

Home | Current Version | Previous Version | Text Only | Print | Product List | Glossary On
Versions: 1 2 3 4 5 6 7 8 9 10 11 12 13 14 15 16 17 18 19 20 21 22 23 24
000
FTUS44 KFWD 221505 AAA
TAFDFW
TAF AMD
KDFW 221505Z 2215/2318 23007KT P6SM FEW300
     FM221800 VRB05KT P6SM FEW060
     FM230000 16007KT P6SM FEW070
     FM230900 03008KT P6SM VCSH BKN100 OVC250
      TEMPO 2312/2315 P6SM -SHRA OVC080
     FM231600 02007KT P6SM BKN050=

USA.gov is the U.S. government's official web portal to all federal, state and local government web resources and services.